sensor_id;sensor_type;location;lat;lon;timestamp;P1;durP1;ratioP1;P2;durP2;ratioP2
43793;SDS011;29414;44.798;20.366;2023-02-28T00:00:20;24.03;;;19.00;;
43793;SDS011;29414;44.798;20.366;2023-02-28T00:04:21;20.43;;;17.43;;
43793;SDS011;29414;44.798;20.366;2023-02-28T00:08:21;21.23;;;18.45;;
43793;SDS011;29414;44.798;20.366;2023-02-28T00:12:21;22.27;;;18.25;;
43793;SDS011;29414;44.798;20.366;2023-02-28T00:16:21;23.00;;;19.37;;
43793;SDS011;29414;44.798;20.366;2023-02-28T00:20:22;22.33;;;18.20;;
43793;SDS011;29414;44.798;20.366;2023-02-28T00:24:22;22.67;;;18.63;;
43793;SDS011;29414;44.798;20.366;2023-02-28T00:28:22;22.35;;;18.92;;
43793;SDS011;29414;44.798;20.366;2023-02-28T00:32:23;21.97;;;18.57;;
43793;SDS011;29414;44.798;20.366;2023-02-28T00:36:23;22.23;;;19.00;;
43793;SDS011;29414;44.798;20.366;2023-02-28T00:40:23;20.27;;;17.90;;
43793;SDS011;29414;44.798;20.366;2023-02-28T00:44:24;21.53;;;17.83;;
43793;SDS011;29414;44.798;20.366;2023-02-28T00:48:24;23.85;;;20.50;;
43793;SDS011;29414;44.798;20.366;2023-02-28T00:52:24;23.50;;;19.02;;
43793;SDS011;29414;44.798;20.366;2023-02-28T00:56:24;24.33;;;21.00;;
43793;SDS011;29414;44.798;20.366;2023-02-28T01:00:25;22.40;;;19.97;;
43793;SDS011;29414;44.798;20.366;2023-02-28T01:04:25;24.42;;;20.58;;
43793;SDS011;29414;44.798;20.366;2023-02-28T01:08:25;24.40;;;20.33;;
43793;SDS011;29414;44.798;20.366;2023-02-28T01:12:26;25.87;;;19.87;;
43793;SDS011;29414;44.798;20.366;2023-02-28T01:16:27;23.67;;;20.63;;
43793;SDS011;29414;44.798;20.366;2023-02-28T01:20:27;25.90;;;21.50;;
43793;SDS011;29414;44.798;20.366;2023-02-28T01:24:28;21.43;;;18.27;;
43793;SDS011;29414;44.798;20.366;2023-02-28T01:28:28;25.93;;;20.23;;
43793;SDS011;29414;44.798;20.366;2023-02-28T01:32:29;22.43;;;19.00;;
43793;SDS011;29414;44.798;20.366;2023-02-28T01:36:29;21.65;;;19.35;;
43793;SDS011;29414;44.798;20.366;2023-02-28T01:40:30;21.13;;;17.83;;
43793;SDS011;29414;44.798;20.366;2023-02-28T01:48:51;21.40;;;18.50;;
43793;SDS011;29414;44.798;20.366;2023-02-28T01:52:52;20.73;;;18.50;;
43793;SDS011;29414;44.798;20.366;2023-02-28T01:56:55;22.53;;;19.80;;
43793;SDS011;29414;44.798;20.366;2023-02-28T02:00:56;21.53;;;18.03;;
43793;SDS011;29414;44.798;20.366;2023-02-28T02:04:58;19.23;;;17.00;;
43793;SDS011;29414;44.798;20.366;2023-02-28T02:09:01;21.67;;;16.83;;
43793;SDS011;29414;44.798;20.366;2023-02-28T02:17:25;20.87;;;17.83;;
43793;SDS011;29414;44.798;20.366;2023-02-28T02:30:18;20.20;;;17.37;;
43793;SDS011;29414;44.798;20.366;2023-02-28T02:43:25;21.27;;;17.40;;
43793;SDS011;29414;44.798;20.366;2023-02-28T02:47:03;20.40;;;17.87;;
43793;SDS011;29414;44.798;20.366;2023-02-28T02:51:07;20.03;;;17.20;;
43793;SDS011;29414;44.798;20.366;2023-02-28T02:55:12;19.10;;;17.10;;
43793;SDS011;29414;44.798;20.366;2023-02-28T02:59:13;19.80;;;17.03;;
43793;SDS011;29414;44.798;20.366;2023-02-28T03:03:15;18.77;;;16.77;;
43793;SDS011;29414;44.798;20.366;2023-02-28T03:07:17;20.00;;;17.37;;
43793;SDS011;29414;44.798;20.366;2023-02-28T03:11:18;19.20;;;17.20;;
43793;SDS011;29414;44.798;20.366;2023-02-28T03:15:23;18.40;;;14.67;;
43793;SDS011;29414;44.798;20.366;2023-02-28T03:19:45;18.77;;;16.75;;
43793;SDS011;29414;44.798;20.366;2023-02-28T03:32:22;18.80;;;16.40;;
43793;SDS011;29414;44.798;20.366;2023-02-28T03:36:28;19.23;;;16.33;;
43793;SDS011;29414;44.798;20.366;2023-02-28T03:40:30;19.77;;;16.47;;
43793;SDS011;29414;44.798;20.366;2023-02-28T03:44:33;18.47;;;15.10;;
43793;SDS011;29414;44.798;20.366;2023-02-28T03:48:38;19.23;;;16.23;;
43793;SDS011;29414;44.798;20.366;2023-02-28T03:52:42;16.73;;;14.93;;
43793;SDS011;29414;44.798;20.366;2023-02-28T03:56:47;16.83;;;14.87;;
43793;SDS011;29414;44.798;20.366;2023-02-28T04:00:50;16.87;;;15.07;;
43793;SDS011;29414;44.798;20.366;2023-02-28T04:04:52;18.00;;;15.63;;
43793;SDS011;29414;44.798;20.366;2023-02-28T04:08:53;18.13;;;15.57;;
43793;SDS011;29414;44.798;20.366;2023-02-28T04:12:54;19.63;;;15.77;;
43793;SDS011;29414;44.798;20.366;2023-02-28T04:16:54;17.60;;;14.35;;
43793;SDS011;29414;44.798;20.366;2023-02-28T04:20:54;19.83;;;15.97;;
43793;SDS011;29414;44.798;20.366;2023-02-28T04:24:54;19.75;;;15.55;;
43793;SDS011;29414;44.798;20.366;2023-02-28T04:28:55;17.60;;;15.03;;
43793;SDS011;29414;44.798;20.366;2023-02-28T04:32:55;18.83;;;15.53;;
43793;SDS011;29414;44.798;20.366;2023-02-28T04:36:56;17.80;;;15.77;;
43793;SDS011;29414;44.798;20.366;2023-02-28T04:40:57;21.93;;;17.27;;
43793;SDS011;29414;44.798;20.366;2023-02-28T04:44:57;17.87;;;14.80;;
43793;SDS011;29414;44.798;20.366;2023-02-28T04:48:57;20.30;;;17.77;;
43793;SDS011;29414;44.798;20.366;2023-02-28T04:52:58;20.20;;;17.57;;
43793;SDS011;29414;44.798;20.366;2023-02-28T04:56:58;20.10;;;17.33;;
43793;SDS011;29414;44.798;20.366;2023-02-28T05:01:03;23.65;;;18.88;;
43793;SDS011;29414;44.798;20.366;2023-02-28T05:05:03;23.30;;;20.13;;
43793;SDS011;29414;44.798;20.366;2023-02-28T05:09:04;25.87;;;21.00;;
43793;SDS011;29414;44.798;20.366;2023-02-28T05:13:04;27.00;;;21.73;;
43793;SDS011;29414;44.798;20.366;2023-02-28T05:17:04;28.00;;;22.80;;
43793;SDS011;29414;44.798;20.366;2023-02-28T05:21:04;28.15;;;22.85;;
43793;SDS011;29414;44.798;20.366;2023-02-28T05:25:05;25.03;;;20.87;;
43793;SDS011;29414;44.798;20.366;2023-02-28T05:29:05;25.03;;;22.17;;
43793;SDS011;29414;44.798;20.366;2023-02-28T05:33:06;29.70;;;23.13;;
43793;SDS011;29414;44.798;20.366;2023-02-28T05:37:07;27.08;;;22.52;;
43793;SDS011;29414;44.798;20.366;2023-02-28T05:41:10;32.03;;;25.33;;
43793;SDS011;29414;44.798;20.366;2023-02-28T05:45:10;30.58;;;23.63;;
43793;SDS011;29414;44.798;20.366;2023-02-28T05:49:11;29.88;;;24.45;;
43793;SDS011;29414;44.798;20.366;2023-02-28T05:53:11;28.93;;;23.10;;
43793;SDS011;29414;44.798;20.366;2023-02-28T05:57:11;32.80;;;25.03;;
43793;SDS011;29414;44.798;20.366;2023-02-28T06:01:26;31.58;;;26.27;;
43793;SDS011;29414;44.798;20.366;2023-02-28T06:05:30;29.77;;;24.20;;
43793;SDS011;29414;44.798;20.366;2023-02-28T06:09:30;28.58;;;23.98;;
43793;SDS011;29414;44.798;20.366;2023-02-28T06:13:31;31.00;;;22.40;;
43793;SDS011;29414;44.798;20.366;2023-02-28T06:17:31;26.50;;;22.00;;
43793;SDS011;29414;44.798;20.366;2023-02-28T06:21:31;24.42;;;21.75;;
43793;SDS011;29414;44.798;20.366;2023-02-28T06:25:31;24.00;;;20.15;;
43793;SDS011;29414;44.798;20.366;2023-02-28T06:29:32;23.95;;;19.83;;
43793;SDS011;29414;44.798;20.366;2023-02-28T06:33:33;24.60;;;20.17;;
43793;SDS011;29414;44.798;20.366;2023-02-28T06:37:33;23.67;;;20.80;;
43793;SDS011;29414;44.798;20.366;2023-02-28T06:41:34;24.58;;;20.33;;
43793;SDS011;29414;44.798;20.366;2023-02-28T06:45:37;28.27;;;21.17;;
43793;SDS011;29414;44.798;20.366;2023-02-28T06:49:40;24.70;;;21.53;;
43793;SDS011;29414;44.798;20.366;2023-02-28T06:53:41;25.37;;;19.77;;
43793;SDS011;29414;44.798;20.366;2023-02-28T06:57:41;24.70;;;20.63;;
43793;SDS011;29414;44.798;20.366;2023-02-28T07:01:42;22.73;;;19.57;;
43793;SDS011;29414;44.798;20.366;2023-02-28T07:05:42;24.00;;;20.00;;
43793;SDS011;29414;44.798;20.366;2023-02-28T07:09:42;24.48;;;21.20;;
43793;SDS011;29414;44.798;20.366;2023-02-28T07:13:42;24.83;;;21.98;;
43793;SDS011;29414;44.798;20.366;2023-02-28T07:17:43;25.38;;;20.83;;
43793;SDS011;29414;44.798;20.366;2023-02-28T07:21:43;26.03;;;21.93;;
43793;SDS011;29414;44.798;20.366;2023-02-28T07:25:43;26.52;;;21.27;;
43793;SDS011;29414;44.798;20.366;2023-02-28T07:29:45;23.30;;;18.77;;
43793;SDS011;29414;44.798;20.366;2023-02-28T07:33:46;23.43;;;20.07;;
43793;SDS011;29414;44.798;20.366;2023-02-28T07:37:46;28.08;;;21.77;;
43793;SDS011;29414;44.798;20.366;2023-02-28T07:41:47;27.80;;;23.35;;
43793;SDS011;29414;44.798;20.366;2023-02-28T07:45:47;26.53;;;22.43;;
43793;SDS011;29414;44.798;20.366;2023-02-28T07:49:47;27.23;;;21.35;;
43793;SDS011;29414;44.798;20.366;2023-02-28T07:53:48;21.52;;;18.67;;
43793;SDS011;29414;44.798;20.366;2023-02-28T07:57:48;21.53;;;18.47;;
43793;SDS011;29414;44.798;20.366;2023-02-28T08:01:48;23.42;;;19.38;;
43793;SDS011;29414;44.798;20.366;2023-02-28T08:05:50;22.37;;;19.13;;
43793;SDS011;29414;44.798;20.366;2023-02-28T08:09:51;22.90;;;19.53;;
43793;SDS011;29414;44.798;20.366;2023-02-28T08:13:51;21.50;;;19.20;;
43793;SDS011;29414;44.798;20.366;2023-02-28T08:17:52;22.37;;;19.60;;
43793;SDS011;29414;44.798;20.366;2023-02-28T08:21:52;21.57;;;19.00;;
43793;SDS011;29414;44.798;20.366;2023-02-28T08:25:53;23.02;;;20.52;;
43793;SDS011;29414;44.798;20.366;2023-02-28T08:29:54;22.67;;;19.60;;
43793;SDS011;29414;44.798;20.366;2023-02-28T08:33:54;22.95;;;19.25;;
43793;SDS011;29414;44.798;20.366;2023-02-28T08:37:58;22.93;;;20.23;;
43793;SDS011;29414;44.798;20.366;2023-02-28T08:41:58;23.08;;;20.58;;
43793;SDS011;29414;44.798;20.366;2023-02-28T08:45:59;24.23;;;21.23;;
43793;SDS011;29414;44.798;20.366;2023-02-28T08:49:59;22.57;;;19.77;;
43793;SDS011;29414;44.798;20.366;2023-02-28T08:53:59;24.52;;;20.65;;
43793;SDS011;29414;44.798;20.366;2023-02-28T08:58:00;23.57;;;19.73;;
43793;SDS011;29414;44.798;20.366;2023-02-28T09:02:01;25.73;;;21.67;;
43793;SDS011;29414;44.798;20.366;2023-02-28T09:06:01;22.60;;;19.88;;
43793;SDS011;29414;44.798;20.366;2023-02-28T09:10:01;27.95;;;21.42;;
43793;SDS011;29414;44.798;20.366;2023-02-28T09:14:01;27.17;;;20.93;;
43793;SDS011;29414;44.798;20.366;2023-02-28T09:18:03;26.30;;;21.43;;
43793;SDS011;29414;44.798;20.366;2023-02-28T09:22:03;27.23;;;21.90;;
43793;SDS011;29414;44.798;20.366;2023-02-28T09:26:03;23.38;;;20.33;;
43793;SDS011;29414;44.798;20.366;2023-02-28T09:30:04;24.20;;;20.70;;
43793;SDS011;29414;44.798;20.366;2023-02-28T09:34:04;24.07;;;20.80;;
43793;SDS011;29414;44.798;20.366;2023-02-28T09:38:05;25.60;;;21.67;;
43793;SDS011;29414;44.798;20.366;2023-02-28T09:42:11;22.90;;;20.47;;
43793;SDS011;29414;44.798;20.366;2023-02-28T09:50:20;22.00;;;18.80;;
43793;SDS011;29414;44.798;20.366;2023-02-28T09:54:24;21.40;;;19.10;;
43793;SDS011;29414;44.798;20.366;2023-02-28T09:58:36;23.27;;;19.13;;
43793;SDS011;29414;44.798;20.366;2023-02-28T10:06:58;24.20;;;20.23;;
43793;SDS011;29414;44.798;20.366;2023-02-28T10:11:00;26.17;;;20.33;;
43793;SDS011;29414;44.798;20.366;2023-02-28T10:15:01;22.60;;;20.23;;
43793;SDS011;29414;44.798;20.366;2023-02-28T10:19:04;26.23;;;21.77;;
43793;SDS011;29414;44.798;20.366;2023-02-28T10:27:28;23.77;;;21.23;;
43793;SDS011;29414;44.798;20.366;2023-02-28T10:31:28;24.27;;;21.63;;
43793;SDS011;29414;44.798;20.366;2023-02-28T10:35:29;26.40;;;22.03;;
43793;SDS011;29414;44.798;20.366;2023-02-28T10:39:43;23.83;;;20.70;;
43793;SDS011;29414;44.798;20.366;2023-02-28T10:43:43;26.60;;;21.10;;
43793;SDS011;29414;44.798;20.366;2023-02-28T10:51:52;27.83;;;24.30;;
43793;SDS011;29414;44.798;20.366;2023-02-28T10:55:57;27.77;;;24.43;;
43793;SDS011;29414;44.798;20.366;2023-02-28T11:00:07;29.13;;;25.27;;
43793;SDS011;29414;44.798;20.366;2023-02-28T11:08:19;28.73;;;24.00;;
43793;SDS011;29414;44.798;20.366;2023-02-28T11:16:30;28.90;;;24.80;;
43793;SDS011;29414;44.798;20.366;2023-02-28T11:20:32;27.77;;;23.73;;
43793;SDS011;29414;44.798;20.366;2023-02-28T11:24:35;33.80;;;24.20;;
43793;SDS011;29414;44.798;20.366;2023-02-28T11:28:38;29.53;;;24.70;;
43793;SDS011;29414;44.798;20.366;2023-02-28T11:32:39;26.67;;;22.50;;
43793;SDS011;29414;44.798;20.366;2023-02-28T11:36:48;30.23;;;23.73;;
43793;SDS011;29414;44.798;20.366;2023-02-28T11:45:00;32.13;;;25.58;;
43793;SDS011;29414;44.798;20.366;2023-02-28T11:49:23;32.47;;;26.50;;
43793;SDS011;29414;44.798;20.366;2023-02-28T12:18:42;25.57;;;20.53;;
43793;SDS011;29414;44.798;20.366;2023-02-28T12:26:51;23.30;;;20.13;;
43793;SDS011;29414;44.798;20.366;2023-02-28T12:30:58;24.43;;;20.63;;
43793;SDS011;29414;44.798;20.366;2023-02-28T12:35:04;25.98;;;21.65;;
43793;SDS011;29414;44.798;20.366;2023-02-28T12:39:12;23.53;;;19.20;;
43793;SDS011;29414;44.798;20.366;2023-02-28T12:43:16;23.43;;;20.30;;
43793;SDS011;29414;44.798;20.366;2023-02-28T12:47:17;23.30;;;19.67;;
43793;SDS011;29414;44.798;20.366;2023-02-28T12:51:17;22.03;;;18.83;;
43793;SDS011;29414;44.798;20.366;2023-02-28T12:55:21;28.57;;;21.10;;
43793;SDS011;29414;44.798;20.366;2023-02-28T13:03:34;22.17;;;19.83;;
43793;SDS011;29414;44.798;20.366;2023-02-28T13:11:49;22.57;;;20.00;;
43793;SDS011;29414;44.798;20.366;2023-02-28T13:16:04;26.10;;;21.37;;
43793;SDS011;29414;44.798;20.366;2023-02-28T13:20:13;30.50;;;21.57;;
43793;SDS011;29414;44.798;20.366;2023-02-28T13:32:51;29.70;;;22.93;;
43793;SDS011;29414;44.798;20.366;2023-02-28T13:45:35;27.27;;;22.90;;
43793;SDS011;29414;44.798;20.366;2023-02-28T13:49:38;33.70;;;26.73;;
43793;SDS011;29414;44.798;20.366;2023-02-28T13:53:51;23.42;;;20.05;;
43793;SDS011;29414;44.798;20.366;2023-02-28T14:10:33;19.90;;;17.47;;
43793;SDS011;29414;44.798;20.366;2023-02-28T14:18:36;21.83;;;16.75;;
43793;SDS011;29414;44.798;20.366;2023-02-28T14:22:43;20.23;;;16.63;;
43793;SDS011;29414;44.798;20.366;2023-02-28T14:31:06;19.43;;;16.63;;
43793;SDS011;29414;44.798;20.366;2023-02-28T14:39:19;22.07;;;19.00;;
43793;SDS011;29414;44.798;20.366;2023-02-28T14:43:21;20.20;;;16.80;;
43793;SDS011;29414;44.798;20.366;2023-02-28T14:47:21;20.33;;;17.60;;
43793;SDS011;29414;44.798;20.366;2023-02-28T14:51:23;18.80;;;15.67;;
43793;SDS011;29414;44.798;20.366;2023-02-28T14:55:25;20.50;;;16.50;;
43793;SDS011;29414;44.798;20.366;2023-02-28T14:59:30;18.17;;;14.40;;
43793;SDS011;29414;44.798;20.366;2023-02-28T15:07:31;15.40;;;13.70;;
43793;SDS011;29414;44.798;20.366;2023-02-28T15:11:31;19.10;;;13.03;;
43793;SDS011;29414;44.798;20.366;2023-02-28T15:19:44;16.40;;;14.70;;
43793;SDS011;29414;44.798;20.366;2023-02-28T15:23:48;15.73;;;13.30;;
43793;SDS011;29414;44.798;20.366;2023-02-28T15:27:50;16.47;;;14.33;;
43793;SDS011;29414;44.798;20.366;2023-02-28T15:31:55;17.40;;;15.33;;
43793;SDS011;29414;44.798;20.366;2023-02-28T15:36:05;18.00;;;14.43;;
43793;SDS011;29414;44.798;20.366;2023-02-28T15:40:13;19.27;;;16.07;;
43793;SDS011;29414;44.798;20.366;2023-02-28T15:44:23;19.57;;;17.47;;
43793;SDS011;29414;44.798;20.366;2023-02-28T15:52:28;18.60;;;16.03;;
43793;SDS011;29414;44.798;20.366;2023-02-28T16:00:29;18.20;;;16.30;;
43793;SDS011;29414;44.798;20.366;2023-02-28T16:04:30;17.80;;;15.97;;
43793;SDS011;29414;44.798;20.366;2023-02-28T16:08:31;16.63;;;14.43;;
43793;SDS011;29414;44.798;20.366;2023-02-28T16:12:32;17.52;;;15.63;;
43793;SDS011;29414;44.798;20.366;2023-02-28T16:16:33;19.03;;;16.60;;
43793;SDS011;29414;44.798;20.366;2023-02-28T16:20:33;19.40;;;17.10;;
43793;SDS011;29414;44.798;20.366;2023-02-28T16:24:33;24.88;;;19.27;;
43793;SDS011;29414;44.798;20.366;2023-02-28T16:28:35;23.02;;;19.95;;
43793;SDS011;29414;44.798;20.366;2023-02-28T16:32:36;22.67;;;19.83;;
43793;SDS011;29414;44.798;20.366;2023-02-28T16:36:36;20.83;;;18.17;;
43793;SDS011;29414;44.798;20.366;2023-02-28T16:40:37;22.20;;;18.15;;
43793;SDS011;29414;44.798;20.366;2023-02-28T16:44:37;23.67;;;19.93;;
43793;SDS011;29414;44.798;20.366;2023-02-28T16:48:37;20.88;;;18.65;;
43793;SDS011;29414;44.798;20.366;2023-02-28T16:52:39;20.90;;;18.33;;
43793;SDS011;29414;44.798;20.366;2023-02-28T16:56:40;20.73;;;17.92;;
43793;SDS011;29414;44.798;20.366;2023-02-28T17:00:42;22.50;;;20.10;;
43793;SDS011;29414;44.798;20.366;2023-02-28T17:04:43;28.47;;;22.57;;
43793;SDS011;29414;44.798;20.366;2023-02-28T17:08:43;27.50;;;22.98;;
43793;SDS011;29414;44.798;20.366;2023-02-28T17:12:44;27.90;;;21.73;;
43793;SDS011;29414;44.798;20.366;2023-02-28T17:16:44;24.57;;;20.57;;
43793;SDS011;29414;44.798;20.366;2023-02-28T17:20:45;27.37;;;21.97;;
43793;SDS011;29414;44.798;20.366;2023-02-28T17:24:45;28.70;;;22.87;;
43793;SDS011;29414;44.798;20.366;2023-02-28T17:28:46;26.03;;;22.90;;
43793;SDS011;29414;44.798;20.366;2023-02-28T17:32:46;28.30;;;24.57;;
43793;SDS011;29414;44.798;20.366;2023-02-28T17:36:47;35.33;;;30.35;;
43793;SDS011;29414;44.798;20.366;2023-02-28T17:40:48;34.90;;;28.60;;
43793;SDS011;29414;44.798;20.366;2023-02-28T17:44:48;36.07;;;31.27;;
43793;SDS011;29414;44.798;20.366;2023-02-28T17:48:52;41.38;;;34.30;;
43793;SDS011;29414;44.798;20.366;2023-02-28T17:52:52;45.60;;;35.73;;
43793;SDS011;29414;44.798;20.366;2023-02-28T17:56:53;45.03;;;36.15;;
43793;SDS011;29414;44.798;20.366;2023-02-28T18:00:53;44.80;;;34.50;;
43793;SDS011;29414;44.798;20.366;2023-02-28T18:04:54;36.97;;;30.33;;
43793;SDS011;29414;44.798;20.366;2023-02-28T18:08:54;40.43;;;30.87;;
43793;SDS011;29414;44.798;20.366;2023-02-28T18:12:54;36.47;;;28.75;;
43793;SDS011;29414;44.798;20.366;2023-02-28T18:16:55;33.73;;;27.17;;
43793;SDS011;29414;44.798;20.366;2023-02-28T18:20:56;33.30;;;25.30;;
43793;SDS011;29414;44.798;20.366;2023-02-28T18:24:56;30.63;;;23.80;;
43793;SDS011;29414;44.798;20.366;2023-02-28T18:28:56;30.30;;;24.88;;
43793;SDS011;29414;44.798;20.366;2023-02-28T18:32:57;31.65;;;26.20;;
43793;SDS011;29414;44.798;20.366;2023-02-28T18:36:57;36.77;;;29.17;;
43793;SDS011;29414;44.798;20.366;2023-02-28T18:41:00;33.17;;;26.40;;
43793;SDS011;29414;44.798;20.366;2023-02-28T18:45:00;37.83;;;29.07;;
43793;SDS011;29414;44.798;20.366;2023-02-28T18:49:01;35.00;;;27.27;;
43793;SDS011;29414;44.798;20.366;2023-02-28T18:53:01;34.88;;;26.70;;
43793;SDS011;29414;44.798;20.366;2023-02-28T18:57:02;36.00;;;28.43;;
43793;SDS011;29414;44.798;20.366;2023-02-28T19:01:02;37.83;;;28.03;;
43793;SDS011;29414;44.798;20.366;2023-02-28T19:05:05;35.23;;;26.57;;
43793;SDS011;29414;44.798;20.366;2023-02-28T19:09:06;39.37;;;28.77;;
43793;SDS011;29414;44.798;20.366;2023-02-28T19:13:06;38.73;;;29.80;;
43793;SDS011;29414;44.798;20.366;2023-02-28T19:17:07;57.77;;;33.53;;
43793;SDS011;29414;44.798;20.366;2023-02-28T19:21:11;50.67;;;36.30;;
43793;SDS011;29414;44.798;20.366;2023-02-28T19:25:11;41.57;;;33.13;;
43793;SDS011;29414;44.798;20.366;2023-02-28T19:29:11;38.75;;;30.23;;
43793;SDS011;29414;44.798;20.366;2023-02-28T19:33:12;40.00;;;29.40;;
43793;SDS011;29414;44.798;20.366;2023-02-28T19:37:12;31.57;;;24.20;;
43793;SDS011;29414;44.798;20.366;2023-02-28T19:41:13;31.23;;;24.27;;
43793;SDS011;29414;44.798;20.366;2023-02-28T19:45:14;31.20;;;24.47;;
43793;SDS011;29414;44.798;20.366;2023-02-28T19:49:14;29.70;;;23.70;;
43793;SDS011;29414;44.798;20.366;2023-02-28T19:53:14;30.98;;;23.73;;
43793;SDS011;29414;44.798;20.366;2023-02-28T19:57:14;36.20;;;24.80;;
43793;SDS011;29414;44.798;20.366;2023-02-28T20:01:16;41.53;;;29.85;;
43793;SDS011;29414;44.798;20.366;2023-02-28T20:05:17;36.80;;;28.23;;
43793;SDS011;29414;44.798;20.366;2023-02-28T20:09:17;37.03;;;27.30;;
43793;SDS011;29414;44.798;20.366;2023-02-28T20:13:18;32.00;;;23.37;;
43793;SDS011;29414;44.798;20.366;2023-02-28T20:17:18;35.63;;;27.47;;
43793;SDS011;29414;44.798;20.366;2023-02-28T20:21:18;40.90;;;29.60;;
43793;SDS011;29414;44.798;20.366;2023-02-28T20:25:18;38.83;;;29.00;;
43793;SDS011;29414;44.798;20.366;2023-02-28T20:29:19;40.47;;;28.57;;
43793;SDS011;29414;44.798;20.366;2023-02-28T20:33:23;40.70;;;30.83;;
43793;SDS011;29414;44.798;20.366;2023-02-28T20:37:23;42.00;;;28.90;;
43793;SDS011;29414;44.798;20.366;2023-02-28T20:41:23;38.67;;;29.63;;
43793;SDS011;29414;44.798;20.366;2023-02-28T20:45:24;39.10;;;30.23;;
43793;SDS011;29414;44.798;20.366;2023-02-28T20:49:24;47.03;;;32.67;;
43793;SDS011;29414;44.798;20.366;2023-02-28T20:53:25;45.03;;;32.30;;
43793;SDS011;29414;44.798;20.366;2023-02-28T20:57:27;44.83;;;31.80;;
43793;SDS011;29414;44.798;20.366;2023-02-28T21:01:28;45.57;;;32.97;;
43793;SDS011;29414;44.798;20.366;2023-02-28T21:05:28;43.83;;;31.90;;
43793;SDS011;29414;44.798;20.366;2023-02-28T21:09:28;44.97;;;30.80;;
43793;SDS011;29414;44.798;20.366;2023-02-28T21:13:29;41.90;;;29.93;;
43793;SDS011;29414;44.798;20.366;2023-02-28T21:17:29;37.63;;;27.40;;
43793;SDS011;29414;44.798;20.366;2023-02-28T21:21:34;37.75;;;27.60;;
43793;SDS011;29414;44.798;20.366;2023-02-28T21:25:35;37.03;;;26.57;;
43793;SDS011;29414;44.798;20.366;2023-02-28T21:29:35;42.30;;;31.13;;
43793;SDS011;29414;44.798;20.366;2023-02-28T21:33:35;41.77;;;29.97;;
43793;SDS011;29414;44.798;20.366;2023-02-28T21:37:36;45.77;;;31.43;;
43793;SDS011;29414;44.798;20.366;2023-02-28T21:41:37;42.63;;;31.03;;
43793;SDS011;29414;44.798;20.366;2023-02-28T21:45:37;44.03;;;30.43;;
43793;SDS011;29414;44.798;20.366;2023-02-28T21:49:38;37.60;;;27.07;;
43793;SDS011;29414;44.798;20.366;2023-02-28T21:53:41;39.30;;;27.13;;
43793;SDS011;29414;44.798;20.366;2023-02-28T21:57:41;39.73;;;27.17;;
43793;SDS011;29414;44.798;20.366;2023-02-28T22:01:42;43.40;;;29.57;;
43793;SDS011;29414;44.798;20.366;2023-02-28T22:05:43;51.37;;;33.37;;
43793;SDS011;29414;44.798;20.366;2023-02-28T22:09:43;49.03;;;32.95;;
43793;SDS011;29414;44.798;20.366;2023-02-28T22:13:43;43.67;;;30.05;;
43793;SDS011;29414;44.798;20.366;2023-02-28T22:17:44;46.13;;;31.43;;
43793;SDS011;29414;44.798;20.366;2023-02-28T22:21:44;45.47;;;30.90;;
43793;SDS011;29414;44.798;20.366;2023-02-28T22:25:45;44.37;;;30.13;;
43793;SDS011;29414;44.798;20.366;2023-02-28T22:29:45;41.75;;;29.50;;
43793;SDS011;29414;44.798;20.366;2023-02-28T22:33:46;41.23;;;28.70;;
43793;SDS011;29414;44.798;20.366;2023-02-28T22:37:47;37.43;;;26.33;;
43793;SDS011;29414;44.798;20.366;2023-02-28T22:41:47;38.50;;;28.83;;
43793;SDS011;29414;44.798;20.366;2023-02-28T22:45:50;41.75;;;28.23;;
43793;SDS011;29414;44.798;20.366;2023-02-28T22:49:53;39.08;;;27.90;;
43793;SDS011;29414;44.798;20.366;2023-02-28T22:53:54;43.70;;;28.77;;
43793;SDS011;29414;44.798;20.366;2023-02-28T22:57:54;48.30;;;31.63;;
43793;SDS011;29414;44.798;20.366;2023-02-28T23:01:54;55.00;;;35.85;;
43793;SDS011;29414;44.798;20.366;2023-02-28T23:05:55;49.97;;;33.97;;
43793;SDS011;29414;44.798;20.366;2023-02-28T23:09:55;57.97;;;36.47;;
43793;SDS011;29414;44.798;20.366;2023-02-28T23:13:55;58.83;;;38.15;;
43793;SDS011;29414;44.798;20.366;2023-02-28T23:17:58;54.73;;;36.77;;
43793;SDS011;29414;44.798;20.366;2023-02-28T23:21:59;53.40;;;37.00;;
43793;SDS011;29414;44.798;20.366;2023-02-28T23:26:04;57.03;;;38.03;;
43793;SDS011;29414;44.798;20.366;2023-02-28T23:30:05;57.57;;;37.63;;
43793;SDS011;29414;44.798;20.366;2023-02-28T23:34:05;53.30;;;34.43;;
43793;SDS011;29414;44.798;20.366;2023-02-28T23:38:06;51.60;;;33.23;;
43793;SDS011;29414;44.798;20.366;2023-02-28T23:42:06;53.40;;;34.57;;
43793;SDS011;29414;44.798;20.366;2023-02-28T23:46:07;54.13;;;35.10;;
43793;SDS011;29414;44.798;20.366;2023-02-28T23:50:08;57.97;;;37.43;;
43793;SDS011;29414;44.798;20.366;2023-02-28T23:54:08;64.60;;;37.27;;
43793;SDS011;29414;44.798;20.366;2023-02-28T23:58:08;63.17;;;36.57;;
